Time;durP1;ratioP1;P1;durP2;ratioP2;P2;SDS_P1;SDS_P2;PMS_P1;PMS_P2;Temp;Humidity;BMP_temperature;BMP_pressure;BME280_temperature;BME280_humidity;BME280_pressure;Samples;Min_cycle;Max_cycle;Signal;HPM_P1;HPM_P2
2023/03/08 00:01:25;;;;;;;6.47;4.65;;;3.00;96.60;;;;;;4971748;28;20598;-70
2023/03/08 00:03:53;;;;;;;6.85;5.10;;;3.00;96.70;;;;;;4971358;28;20319;-70
2023/03/08 00:06:20;;;;;;;4.55;3.97;;;3.00;96.70;;;;;;4987102;28;20250;-70
2023/03/08 00:08:48;;;;;;;5.90;4.18;;;3.00;96.70;;;;;;4971428;28;20211;-70
2023/03/08 00:11:16;;;;;;;8.27;4.72;;;3.10;96.80;;;;;;4971637;28;20204;-70
2023/03/08 00:13:43;;;;;;;11.30;5.38;;;3.10;96.80;;;;;;4985314;28;20229;-70
2023/03/08 00:16:12;;;;;;;9.40;5.10;;;3.10;96.80;;;;;;4990561;28;20214;-71
2023/03/08 00:18:40;;;;;;;6.07;4.40;;;3.10;96.90;;;;;;4990858;28;20318;-70
2023/03/08 00:21:09;;;;;;;7.82;5.25;;;3.10;96.90;;;;;;4990846;28;20632;-70
2023/03/08 00:23:36;;;;;;;8.10;4.60;;;3.10;96.90;;;;;;4989549;28;20422;-70
2023/03/08 00:26:03;;;;;;;7.18;4.32;;;3.10;96.80;;;;;;4990392;28;20209;-70
2023/03/08 00:28:31;;;;;;;7.22;4.80;;;3.10;96.90;;;;;;4990700;28;20718;-70
2023/03/08 00:30:59;;;;;;;5.10;4.22;;;3.10;97.20;;;;;;4990378;28;20207;-70
2023/03/08 00:33:26;;;;;;;5.10;3.50;;;3.10;97.10;;;;;;4970853;28;20625;-70
2023/03/08 00:35:58;;;;;;;6.53;4.05;;;3.10;97.00;;;;;;4970270;28;20207;-70
2023/03/08 00:38:25;;;;;;;7.97;4.68;;;3.10;97.00;;;;;;4970414;28;20699;-70
2023/03/08 00:40:52;;;;;;;8.50;4.97;;;3.10;97.10;;;;;;4970944;28;20208;-70
2023/03/08 00:43:19;;;;;;;5.75;4.43;;;3.00;97.20;;;;;;4970446;28;20235;-70
2023/03/08 00:45:47;;;;;;;7.97;3.47;;;3.00;97.20;;;;;;4970176;28;20230;-70
2023/03/08 00:48:14;;;;;;;6.43;4.30;;;2.90;97.30;;;;;;4970508;28;20591;-71
2023/03/08 00:50:40;;;;;;;7.07;4.82;;;2.90;97.30;;;;;;4970317;28;20203;-70
2023/03/08 00:53:08;;;;;;;8.65;4.97;;;2.90;97.30;;;;;;4970015;28;20635;-70
2023/03/08 00:55:35;;;;;;;7.28;4.50;;;2.80;97.40;;;;;;4970134;28;20258;-70
2023/03/08 00:58:02;;;;;;;7.20;4.35;;;2.80;97.50;;;;;;4986164;28;20227;-70
2023/03/08 01:00:29;;;;;;;6.90;4.57;;;2.70;97.60;;;;;;4989895;28;20199;-70
2023/03/08 01:02:57;;;;;;;6.72;4.20;;;2.70;97.60;;;;;;4989494;28;20223;-70
2023/03/08 01:05:24;;;;;;;8.52;5.00;;;2.70;97.60;;;;;;4989078;28;20203;-70
2023/03/08 01:07:51;;;;;;;7.68;5.20;;;2.70;97.60;;;;;;4989863;28;20582;-70
2023/03/08 01:10:18;;;;;;;5.82;4.40;;;2.60;97.80;;;;;;5062353;23;20250;-74
2023/03/08 01:12:44;;;;;;;6.70;4.53;;;2.60;97.80;;;;;;4988686;28;20207;-74
2023/03/08 01:15:11;;;;;;;7.68;4.57;;;2.60;98.00;;;;;;4974055;28;20207;-74
2023/03/08 01:17:38;;;;;;;8.23;4.50;;;2.60;98.00;;;;;;4974378;28;20254;-74
2023/03/08 01:20:08;;;;;;;8.73;4.90;;;2.50;98.00;;;;;;4973927;28;20207;-74
2023/03/08 01:22:34;;;;;;;9.05;5.00;;;2.50;98.00;;;;;;4955266;28;20236;-74
2023/03/08 01:25:01;;;;;;;8.05;5.60;;;2.50;98.10;;;;;;4970631;28;20203;-74
2023/03/08 01:27:28;;;;;;;8.05;4.70;;;2.50;98.20;;;;;;4973950;28;20199;-73
2023/03/08 01:29:54;;;;;;;9.93;4.65;;;2.40;98.20;;;;;;4974085;28;20203;-74
2023/03/08 01:32:21;;;;;;;8.63;5.68;;;2.40;98.30;;;;;;4961818;28;20211;-74
2023/03/08 01:34:48;;;;;;;11.15;5.45;;;2.40;98.30;;;;;;4954032;28;20227;-74
2023/03/08 01:37:16;;;;;;;9.27;4.97;;;2.30;98.30;;;;;;4954917;28;20209;-74
2023/03/08 01:39:43;;;;;;;7.38;4.47;;;2.30;98.40;;;;;;4955659;28;20217;-73
2023/03/08 01:42:09;;;;;;;8.40;5.60;;;2.30;98.40;;;;;;4956660;28;20204;-74
2023/03/08 01:44:50;;;;;;;7.25;5.20;;;2.20;98.50;;;;;;4968492;28;20244;-74
2023/03/08 01:47:19;;;;;;;10.40;4.88;;;2.20;98.60;;;;;;4958342;28;20232;-74
2023/03/08 01:49:47;;;;;;;9.45;5.20;;;2.10;98.70;;;;;;4958266;28;20200;-74
2023/03/08 01:52:18;;;;;;;9.73;5.40;;;2.00;98.80;;;;;;4957221;28;20697;-74
2023/03/08 01:54:49;;;;;;;8.85;5.07;;;2.00;98.90;;;;;;4957000;28;20231;-74
2023/03/08 01:57:19;;;;;;;8.63;4.10;;;2.00;98.90;;;;;;4973281;28;20200;-74
2023/03/08 01:59:48;;;;;;;7.20;5.13;;;1.90;98.90;;;;;;5064270;23;20230;-74
2023/03/08 02:02:15;;;;;;;7.00;4.70;;;1.90;99.10;;;;;;5010508;28;20666;-74
2023/03/08 02:04:44;;;;;;;6.88;5.53;;;1.80;99.10;;;;;;4992227;28;20737;-74
2023/03/08 02:07:11;;;;;;;7.25;4.65;;;1.80;99.20;;;;;;4991097;28;20218;-74
2023/03/08 02:09:39;;;;;;;7.65;4.82;;;1.80;99.20;;;;;;4990769;28;20207;-74
2023/03/08 02:12:11;;;;;;;5.18;4.00;;;1.80;99.30;;;;;;4982958;28;20211;-74
2023/03/08 02:14:38;;;;;;;8.95;4.20;;;1.70;99.30;;;;;;4970790;28;20262;-74
2023/03/08 02:17:05;;;;;;;6.45;4.70;;;1.70;99.40;;;;;;4971546;28;20670;-73
2023/03/08 02:19:38;;;;;;;7.10;4.70;;;1.70;99.50;;;;;;4982522;28;20234;-74
2023/03/08 02:22:10;;;;;;;7.30;5.07;;;1.70;99.50;;;;;;4990985;28;20207;-74
2023/03/08 02:24:38;;;;;;;5.20;3.42;;;1.70;99.50;;;;;;4970586;28;20219;-74
2023/03/08 02:27:07;;;;;;;6.57;4.43;;;1.70;99.50;;;;;;4971528;28;20211;-74
2023/03/08 02:29:34;;;;;;;7.57;4.80;;;1.70;99.50;;;;;;4983226;28;20238;-74
2023/03/08 02:32:01;;;;;;;10.07;5.55;;;1.70;99.50;;;;;;4990783;28;20207;-74
2023/03/08 02:34:27;;;;;;;7.25;4.28;;;1.70;99.60;;;;;;4989790;28;20237;-74
2023/03/08 02:36:54;;;;;;;5.65;4.13;;;1.70;99.50;;;;;;4990965;28;20207;-72
2023/03/08 02:39:21;;;;;;;6.88;4.68;;;1.70;99.60;;;;;;4990084;28;20720;-73
2023/03/08 02:41:49;;;;;;;7.82;3.80;;;1.70;99.50;;;;;;4990612;28;20207;-73
2023/03/08 02:44:16;;;;;;;7.13;5.30;;;1.80;99.60;;;;;;4989915;28;20230;-73
2023/03/08 02:46:43;;;;;;;8.32;4.75;;;1.80;99.50;;;;;;4990770;28;20215;-73
2023/03/08 02:49:09;;;;;;;7.32;5.18;;;1.80;99.40;;;;;;4990462;28;20204;-73
2023/03/08 02:51:36;;;;;;;10.10;4.60;;;1.90;99.40;;;;;;4990983;28;20229;-73
2023/03/08 02:54:03;;;;;;;6.45;4.43;;;1.90;99.40;;;;;;4990137;28;20231;-73
2023/03/08 02:56:30;;;;;;;7.13;4.57;;;1.90;99.30;;;;;;4971614;28;20219;-73
2023/03/08 02:58:58;;;;;;;5.65;4.32;;;1.90;99.40;;;;;;4977629;28;20215;-73
2023/03/08 03:01:24;;;;;;;5.45;4.30;;;1.90;99.40;;;;;;4990284;28;20203;-73
2023/03/08 03:03:53;;;;;;;6.47;4.25;;;1.90;99.30;;;;;;4992974;28;20230;-73
2023/03/08 03:06:21;;;;;;;6.40;4.78;;;1.90;99.40;;;;;;4993254;28;20694;-73
2023/03/08 03:08:49;;;;;;;7.28;5.53;;;1.90;99.30;;;;;;4988259;28;20199;-73
2023/03/08 03:11:17;;;;;;;5.53;4.25;;;2.00;99.30;;;;;;4993899;28;20206;-73
2023/03/08 03:13:44;;;;;;;7.40;4.38;;;2.00;99.20;;;;;;4994162;28;20714;-73
2023/03/08 03:16:14;;;;;;;8.88;4.53;;;2.00;99.10;;;;;;4993872;28;20203;-72
2023/03/08 03:18:41;;;;;;;8.65;4.90;;;2.00;99.20;;;;;;4994234;28;20694;-73
2023/03/08 03:21:09;;;;;;;8.90;5.03;;;2.00;99.20;;;;;;4994445;28;20280;-74
2023/03/08 03:23:36;;;;;;;6.50;4.38;;;2.00;99.20;;;;;;4986161;28;20222;-74
2023/03/08 03:26:05;;;;;;;6.05;4.00;;;2.10;99.20;;;;;;4993862;28;20222;-73
2023/03/08 03:28:31;;;;;;;9.90;5.53;;;2.10;99.10;;;;;;4993917;28;20239;-73
2023/03/08 03:30:58;;;;;;;4.78;3.80;;;2.10;99.20;;;;;;4994217;28;20206;-74
2023/03/08 03:33:26;;;;;;;9.10;4.85;;;2.10;99.10;;;;;;4993535;28;20581;-73
2023/03/08 03:35:53;;;;;;;8.88;4.63;;;2.10;99.10;;;;;;4993738;28;20207;-73
2023/03/08 03:38:20;;;;;;;7.47;4.50;;;2.10;99.10;;;;;;4993622;28;20230;-73
2023/03/08 03:40:46;;;;;;;7.68;4.63;;;2.10;99.00;;;;;;4993951;28;20199;-73
2023/03/08 03:43:13;;;;;;;8.75;5.10;;;2.10;99.10;;;;;;4993157;28;20226;-73
2023/03/08 03:45:40;;;;;;;5.95;4.03;;;2.10;99.20;;;;;;4993436;28;20215;-73
2023/03/08 03:48:06;;;;;;;7.82;4.70;;;2.00;99.10;;;;;;4993811;28;20199;-73
2023/03/08 03:50:34;;;;;;;9.85;4.45;;;2.00;99.10;;;;;;4993024;28;20226;-73
2023/03/08 03:53:01;;;;;;;5.30;4.55;;;2.00;99.10;;;;;;4993496;28;20227;-74
2023/03/08 03:55:28;;;;;;;6.20;3.63;;;2.10;99.00;;;;;;4992709;28;20199;-73
2023/03/08 03:57:55;;;;;;;6.18;4.35;;;2.00;99.00;;;;;;4993707;28;20609;-73
2023/03/08 04:00:22;;;;;;;6.22;3.90;;;2.00;99.10;;;;;;4993093;28;20219;-74
2023/03/08 04:02:48;;;;;;;9.82;4.20;;;2.00;99.00;;;;;;4992937;28;20203;-73
2023/03/08 04:05:15;;;;;;;7.00;5.50;;;2.10;99.10;;;;;;4976345;28;20196;-73
2023/03/08 04:07:43;;;;;;;6.25;4.32;;;2.10;99.10;;;;;;4974312;28;20607;-74
2023/03/08 04:10:11;;;;;;;8.65;4.47;;;2.10;99.20;;;;;;4974063;28;20203;-73
2023/03/08 04:12:38;;;;;;;6.70;4.20;;;2.10;99.10;;;;;;4981687;28;20716;-74
2023/03/08 04:15:06;;;;;;;6.40;4.07;;;2.10;99.10;;;;;;4988272;28;20203;-73
2023/03/08 04:17:33;;;;;;;6.57;4.10;;;2.00;99.30;;;;;;4985385;28;20568;-73
2023/03/08 04:20:00;;;;;;;10.80;5.40;;;2.00;99.10;;;;;;4993519;28;20211;-73
2023/03/08 04:22:26;;;;;;;7.63;4.50;;;2.00;99.10;;;;;;4992667;28;20199;-73
2023/03/08 04:24:54;;;;;;;5.97;3.95;;;2.00;99.10;;;;;;4992630;28;20454;-74
2023/03/08 04:27:21;;;;;;;5.75;4.60;;;2.00;99.20;;;;;;4992644;28;20200;-73
2023/03/08 04:29:48;;;;;;;10.95;5.18;;;2.00;99.20;;;;;;4992820;28;20203;-72
2023/03/08 04:32:14;;;;;;;7.88;4.35;;;2.10;99.10;;;;;;4984965;28;20214;-72
2023/03/08 04:34:41;;;;;;;7.72;4.45;;;2.10;99.80;;;;;;4990768;28;20229;-72
2023/03/08 04:37:10;;;;;;;7.60;5.18;;;2.20;99.20;;;;;;4986660;28;20203;-73
2023/03/08 04:39:37;;;;;;;6.80;4.88;;;2.20;99.10;;;;;;4980414;28;20222;-73
2023/03/08 04:42:06;;;;;;;5.72;3.95;;;2.20;99.20;;;;;;4983606;28;20208;-74
2023/03/08 04:44:33;;;;;;;8.60;5.57;;;2.20;99.00;;;;;;4985448;28;20227;-72
2023/03/08 04:46:59;;;;;;;8.38;4.53;;;2.20;99.00;;;;;;4984273;28;20579;-72
2023/03/08 04:49:26;;;;;;;7.40;4.20;;;2.20;99.00;;;;;;4985034;28;20540;-73
2023/03/08 04:51:53;;;;;;;6.60;4.00;;;2.20;99.10;;;;;;4987137;28;20218;-72
2023/03/08 04:54:20;;;;;;;6.75;3.97;;;2.20;99.10;;;;;;4984053;28;20234;-72
2023/03/08 04:56:47;;;;;;;6.53;4.55;;;2.20;99.20;;;;;;4992732;28;20199;-72
2023/03/08 04:59:15;;;;;;;6.88;4.85;;;2.20;99.10;;;;;;4986179;28;20255;-71
2023/03/08 05:01:42;;;;;;;8.45;5.10;;;2.30;99.10;;;;;;4985599;28;20210;-71
2023/03/08 05:04:10;;;;;;;9.15;5.10;;;2.30;99.20;;;;;;4993545;28;20253;-71
2023/03/08 05:06:38;;;;;;;7.78;5.00;;;2.30;99.20;;;;;;4993847;28;20195;-73
2023/03/08 05:09:05;;;;;;;6.80;4.22;;;2.30;99.20;;;;;;4994628;28;20191;-72
2023/03/08 05:11:32;;;;;;;6.85;4.10;;;2.40;99.20;;;;;;4994035;28;20195;-72
2023/03/08 05:14:00;;;;;;;7.45;4.55;;;2.40;99.20;;;;;;4995775;28;20219;-72
2023/03/08 05:16:28;;;;;;;7.97;5.07;;;2.40;99.30;;;;;;4994809;28;20199;-72
2023/03/08 05:18:55;;;;;;;9.95;4.85;;;2.40;99.30;;;;;;4995201;28;20219;-72
2023/03/08 05:21:23;;;;;;;9.70;6.30;;;2.40;99.20;;;;;;4994377;28;20206;-72
2023/03/08 05:23:50;;;;;;;9.35;5.82;;;2.50;99.30;;;;;;4990682;28;20457;-73
2023/03/08 05:26:18;;;;;;;8.32;5.68;;;2.50;99.40;;;;;;4991072;28;20207;-74
2023/03/08 05:28:45;;;;;;;7.20;5.55;;;2.60;99.50;;;;;;4992465;28;20204;-73
2023/03/08 05:31:14;;;;;;;7.05;5.03;;;2.60;99.20;;;;;;4993427;28;20214;-72
2023/03/08 05:33:45;;;;;;;7.50;4.13;;;2.60;99.20;;;;;;4991132;28;20226;-72
2023/03/08 05:36:13;;;;;;;8.23;5.40;;;2.70;99.20;;;;;;4992819;28;20199;-72
2023/03/08 05:38:40;;;;;;;7.13;4.53;;;2.70;99.10;;;;;;4992672;28;20206;-72
2023/03/08 05:41:09;;;;;;;10.35;6.38;;;2.70;99.20;;;;;;4992300;28;20203;-72
2023/03/08 05:43:35;;;;;;;8.63;5.18;;;2.60;99.20;;;;;;4991610;28;20226;-72
2023/03/08 05:46:04;;;;;;;10.05;5.20;;;2.70;99.30;;;;;;4991756;28;20674;-72
2023/03/08 05:48:32;;;;;;;6.18;4.60;;;2.70;99.40;;;;;;4991564;28;20199;-72
2023/03/08 05:51:05;;;;;;;8.98;5.05;;;2.70;99.20;;;;;;4991972;28;20670;-72
2023/03/08 05:53:32;;;;;;;8.18;4.93;;;2.80;99.20;;;;;;4991303;28;20227;-72
2023/03/08 05:56:08;;;;;;;9.18;4.97;;;2.80;99.10;;;;;;4991714;28;20203;-71
2023/03/08 05:58:35;;;;;;;8.07;5.57;;;2.90;99.10;;;;;;4991503;28;20670;-72
2023/03/08 06:01:09;;;;;;;10.38;4.50;;;2.90;99.30;;;;;;4991966;28;20638;-72
2023/03/08 06:03:35;;;;;;;11.30;5.43;;;2.90;99.30;;;;;;4991600;28;20228;-73
2023/03/08 06:06:04;;;;;;;9.73;4.88;;;3.00;99.30;;;;;;4992425;28;20262;-72
2023/03/08 06:08:30;;;;;;;10.70;5.35;;;3.00;99.40;;;;;;4991709;28;20230;-73
2023/03/08 06:10:58;;;;;;;11.48;6.13;;;3.00;99.40;;;;;;4992166;28;20203;-73
2023/03/08 06:13:24;;;;;;;10.80;6.07;;;3.00;99.40;;;;;;4991335;28;20274;-72
2023/03/08 06:15:54;;;;;;;11.43;6.50;;;3.10;99.70;;;;;;4990584;28;20203;-73
2023/03/08 06:18:21;;;;;;;6.47;5.00;;;3.10;99.60;;;;;;4993050;28;20199;-73
2023/03/08 06:20:59;;;;;;;13.52;6.85;;;3.10;99.60;;;;;;4993223;28;20222;-73
2023/03/08 06:23:28;;;;;;;8.27;5.60;;;3.10;99.70;;;;;;4994130;28;20226;-73
2023/03/08 06:25:56;;;;;;;13.18;6.63;;;3.20;99.70;;;;;;4995508;28;20199;-73
2023/03/08 06:28:23;;;;;;;7.78;5.60;;;3.10;99.80;;;;;;4991101;28;20245;-72
2023/03/08 06:30:50;;;;;;;7.80;5.00;;;3.10;99.90;;;;;;4990961;28;20585;-72
2023/03/08 06:33:17;;;;;;;9.35;6.50;;;3.10;99.90;;;;;;4991209;28;20226;-73
2023/03/08 06:35:43;;;;;;;11.55;6.68;;;3.20;99.90;;;;;;4990670;28;20206;-73
2023/03/08 06:38:10;;;;;;;11.05;6.90;;;3.20;99.90;;;;;;4991322;28;20674;-73
2023/03/08 06:40:38;;;;;;;11.50;6.38;;;3.20;99.90;;;;;;4973093;28;20225;-72
2023/03/08 06:43:05;;;;;;;7.00;5.50;;;3.20;99.90;;;;;;4972046;28;20231;-72
2023/03/08 06:45:33;;;;;;;10.55;6.57;;;3.30;99.90;;;;;;4971380;28;20199;-72
2023/03/08 06:48:00;;;;;;;9.88;5.85;;;3.20;99.90;;;;;;4972623;28;20771;-71
2023/03/08 06:50:26;;;;;;;11.02;5.70;;;3.30;99.90;;;;;;4972903;28;20192;-73
2023/03/08 06:52:54;;;;;;;12.13;7.00;;;3.40;99.90;;;;;;4973050;28;20595;-72
2023/03/08 06:55:21;;;;;;;12.23;7.50;;;3.40;99.90;;;;;;4974466;28;20207;-73
2023/03/08 06:57:49;;;;;;;9.68;6.50;;;3.40;99.90;;;;;;4976332;28;20200;-72
2023/03/08 07:00:16;;;;;;;12.73;7.03;;;3.40;99.90;;;;;;4975848;28;20215;-72
2023/03/08 07:02:43;;;;;;;12.20;5.43;;;3.40;99.90;;;;;;4986568;28;20203;-72
2023/03/08 07:05:10;;;;;;;10.57;7.10;;;3.50;99.90;;;;;;4994219;28;20199;-73
2023/03/08 07:07:38;;;;;;;10.48;6.40;;;3.50;99.90;;;;;;4994348;28;20199;-71
2023/03/08 07:10:06;;;;;;;11.43;6.95;;;3.60;99.90;;;;;;5066103;23;20257;-70
2023/03/08 07:12:35;;;;;;;10.25;6.70;;;3.60;99.90;;;;;;4967272;28;20226;-68
2023/03/08 07:15:03;;;;;;;10.02;6.10;;;3.60;99.90;;;;;;4970495;28;20226;-68
2023/03/08 07:17:31;;;;;;;8.30;6.25;;;3.70;99.90;;;;;;4970465;28;20215;-68
2023/03/08 07:19:58;;;;;;;12.15;5.25;;;3.70;99.90;;;;;;4970772;28;20220;-68
2023/03/08 07:22:25;;;;;;;10.35;6.65;;;3.80;99.90;;;;;;4962274;28;20212;-68
2023/03/08 07:24:51;;;;;;;9.95;6.50;;;3.80;99.90;;;;;;4951121;28;20220;-68
2023/03/08 07:27:18;;;;;;;8.80;5.88;;;3.80;99.90;;;;;;4951287;28;20197;-68
2023/03/08 07:29:45;;;;;;;12.90;7.68;;;3.80;99.90;;;;;;4951354;28;20212;-68
2023/03/08 07:32:13;;;;;;;8.52;6.13;;;3.90;99.90;;;;;;4951179;28;20285;-68
2023/03/08 07:34:40;;;;;;;11.02;6.18;;;4.00;99.90;;;;;;4950830;28;20232;-70
2023/03/08 07:37:11;;;;;;;9.18;6.25;;;4.00;99.90;;;;;;4951198;28;20196;-71
2023/03/08 07:39:38;;;;;;;6.55;5.40;;;4.10;99.90;;;;;;4966405;28;20224;-72
2023/03/08 07:42:05;;;;;;;9.88;5.93;;;4.10;99.90;;;;;;4964491;28;20208;-71
2023/03/08 07:44:32;;;;;;;7.90;5.28;;;4.10;99.90;;;;;;4969717;28;20570;-68
2023/03/08 07:46:59;;;;;;;7.45;5.45;;;4.20;99.90;;;;;;4970671;28;20254;-68
2023/03/08 07:49:27;;;;;;;8.27;5.50;;;4.20;99.90;;;;;;4965144;28;20204;-67
2023/03/08 07:51:54;;;;;;;10.30;6.20;;;4.20;99.90;;;;;;4973858;28;20200;-69
2023/03/08 07:54:22;;;;;;;5.47;4.53;;;4.20;99.90;;;;;;4973422;28;20224;-68
2023/03/08 07:56:48;;;;;;;8.30;5.82;;;4.30;99.90;;;;;;4973974;28;20227;-68
2023/03/08 07:59:15;;;;;;;10.85;5.10;;;4.30;99.90;;;;;;4973865;28;20718;-69
2023/03/08 08:01:42;;;;;;;6.43;4.57;;;4.30;99.90;;;;;;4973587;28;20220;-68
2023/03/08 08:04:08;;;;;;;6.85;5.38;;;4.30;99.90;;;;;;4959914;28;20220;-71
2023/03/08 08:06:37;;;;;;;6.30;5.30;;;4.30;99.90;;;;;;4954302;28;20218;-70
2023/03/08 08:09:03;;;;;;;9.95;4.95;;;4.30;99.90;;;;;;4967459;28;20216;-72
2023/03/08 08:11:30;;;;;;;7.38;4.68;;;4.30;99.90;;;;;;4973125;28;20227;-71
2023/03/08 08:13:57;;;;;;;8.20;5.28;;;4.20;99.90;;;;;;4973062;28;20215;-74
2023/03/08 08:16:24;;;;;;;8.57;5.68;;;4.20;99.90;;;;;;4973071;28;20200;-74
2023/03/08 08:18:52;;;;;;;7.40;5.18;;;4.20;99.90;;;;;;4973377;28;20199;-70
2023/03/08 08:21:19;;;;;;;7.68;4.90;;;4.30;99.90;;;;;;4973236;28;20216;-70
2023/03/08 08:23:47;;;;;;;10.38;5.95;;;4.30;99.90;;;;;;4970873;28;20643;-69
2023/03/08 08:26:15;;;;;;;7.22;5.25;;;4.30;99.90;;;;;;4954044;28;20207;-69
2023/03/08 08:28:43;;;;;;;5.95;4.50;;;4.30;99.90;;;;;;4954036;28;20341;-70
2023/03/08 08:31:12;;;;;;;6.03;4.50;;;4.30;99.90;;;;;;4954061;28;20197;-70
2023/03/08 08:33:39;;;;;;;7.93;5.32;;;4.30;99.90;;;;;;4969519;28;20652;-71
2023/03/08 08:36:08;;;;;;;6.75;5.00;;;4.20;99.90;;;;;;4958775;28;20204;-71
2023/03/08 08:38:35;;;;;;;8.02;5.28;;;4.30;99.90;;;;;;4972967;28;20577;-72
2023/03/08 08:41:05;;;;;;;5.40;4.30;;;4.30;99.90;;;;;;4973016;28;20215;-70
2023/03/08 08:43:34;;;;;;;9.57;5.88;;;4.40;99.90;;;;;;4972537;28;20228;-70
2023/03/08 08:46:01;;;;;;;7.70;5.72;;;4.50;99.90;;;;;;4973035;28;20196;-70
2023/03/08 08:48:28;;;;;;;5.63;4.53;;;4.50;99.90;;;;;;4972668;28;20207;-70
2023/03/08 08:50:57;;;;;;;8.90;5.05;;;4.60;99.90;;;;;;4961441;28;20196;-70
2023/03/08 08:53:24;;;;;;;11.10;5.25;;;4.70;99.90;;;;;;4957318;28;20220;-71
2023/03/08 08:55:50;;;;;;;8.32;5.95;;;4.80;99.90;;;;;;4953118;28;20241;-71
2023/03/08 08:58:19;;;;;;;9.35;5.22;;;4.90;99.90;;;;;;4967060;28;20204;-69
2023/03/08 09:00:46;;;;;;;8.10;5.20;;;4.80;99.90;;;;;;4966240;28;20231;-70
2023/03/08 09:03:13;;;;;;;6.20;5.22;;;4.80;99.90;;;;;;4970364;28;20216;-70
2023/03/08 09:05:41;;;;;;;7.78;4.90;;;4.80;99.90;;;;;;4967370;28;20215;-68
2023/03/08 09:08:09;;;;;;;12.00;6.50;;;4.80;99.90;;;;;;4958911;28;20571;-69
2023/03/08 09:10:38;;;;;;;8.40;5.53;;;4.80;99.90;;;;;;4966855;28;20211;-70
2023/03/08 09:13:05;;;;;;;9.70;5.20;;;4.90;99.90;;;;;;4964072;28;20598;-73
2023/03/08 09:15:35;;;;;;;9.10;5.70;;;4.90;99.90;;;;;;4953912;28;20275;-70
2023/03/08 09:18:02;;;;;;;5.95;4.38;;;5.00;99.90;;;;;;4952262;28;20255;-72
2023/03/08 09:20:28;;;;;;;9.60;5.25;;;5.00;99.90;;;;;;4957139;28;20947;-69
2023/03/08 09:22:55;;;;;;;9.38;5.60;;;4.90;99.90;;;;;;4964403;28;20226;-70
2023/03/08 09:25:23;;;;;;;7.85;6.25;;;5.00;99.90;;;;;;4955401;28;20204;-69
2023/03/08 09:27:50;;;;;;;9.65;6.00;;;5.00;99.90;;;;;;4954293;28;20558;-67
2023/03/08 09:30:17;;;;;;;6.60;5.38;;;5.00;99.90;;;;;;4960428;28;20203;-69
2023/03/08 09:32:45;;;;;;;6.50;4.78;;;5.10;99.90;;;;;;4951088;28;20224;-69
2023/03/08 09:35:13;;;;;;;7.78;5.68;;;5.10;99.90;;;;;;4951238;28;20622;-70
2023/03/08 09:37:40;;;;;;;9.27;5.32;;;5.10;99.90;;;;;;4952310;28;20556;-69
2023/03/08 09:40:17;;;;;;;9.10;5.75;;;5.10;99.90;;;;;;4951474;28;20212;-69
2023/03/08 09:42:44;;;;;;;8.90;5.68;;;5.10;99.90;;;;;;4960150;28;20255;-68
2023/03/08 09:45:20;;;;;;;7.93;4.88;;;5.20;99.90;;;;;;4958556;28;20200;-69
2023/03/08 09:48:03;;;;;;;7.68;5.05;;;5.20;99.90;;;;;;4952319;28;20581;-69
2023/03/08 09:50:45;;;;;;;6.45;5.47;;;5.20;99.90;;;;;;4965407;28;20212;-69
2023/03/08 09:53:24;;;;;;;5.75;4.50;;;5.20;99.90;;;;;;4956660;28;20275;-68
2023/03/08 09:55:55;;;;;;;5.95;5.25;;;5.30;99.90;;;;;;4958382;28;20211;-69
2023/03/08 09:58:48;;;;;;;7.78;4.93;;;5.40;99.90;;;;;;4958044;28;20664;-69
2023/03/08 10:01:35;;;;;;;5.55;4.75;;;5.50;99.90;;;;;;4951677;28;20228;-69
2023/03/08 10:04:35;;;;;;;6.25;3.83;;;5.70;99.90;;;;;;4951105;28;20224;-70
2023/03/08 10:07:18;;;;;;;5.80;3.92;;;5.90;99.90;;;;;;4959722;28;20229;-69
2023/03/08 10:09:52;;;;;;;6.28;4.10;;;6.00;99.90;;;;;;4950887;28;20640;-69
2023/03/08 10:12:23;;;;;;;5.78;3.95;;;6.10;99.90;;;;;;4956179;28;20204;-69
2023/03/08 10:14:52;;;;;;;7.57;4.50;;;6.20;99.90;;;;;;4950579;28;20235;-69
2023/03/08 10:17:22;;;;;;;6.90;4.05;;;6.20;99.90;;;;;;4956108;28;20258;-69
2023/03/08 10:19:54;;;;;;;6.05;4.05;;;6.30;99.90;;;;;;4960205;28;20224;-70
2023/03/08 10:22:26;;;;;;;5.07;4.13;;;6.40;99.90;;;;;;4964429;28;20220;-69
2023/03/08 10:24:58;;;;;;;6.60;4.00;;;6.40;99.90;;;;;;4959431;28;20336;-69
2023/03/08 10:27:26;;;;;;;6.60;3.88;;;6.50;99.90;;;;;;4956666;28;20234;-70
2023/03/08 10:29:55;;;;;;;5.93;4.28;;;6.60;99.90;;;;;;4952258;28;20255;-69
2023/03/08 10:32:22;;;;;;;4.53;3.50;;;6.70;99.90;;;;;;4951453;28;20201;-69
2023/03/08 10:34:51;;;;;;;6.15;3.45;;;6.70;99.90;;;;;;4956875;28;20737;-69
2023/03/08 10:37:19;;;;;;;5.97;3.70;;;6.70;99.90;;;;;;4959743;28;20801;-69
2023/03/08 10:39:53;;;;;;;4.95;3.72;;;6.80;99.90;;;;;;4967912;28;20219;-69
2023/03/08 10:42:22;;;;;;;6.72;3.60;;;7.00;99.90;;;;;;4964540;28;20235;-68
2023/03/08 10:44:55;;;;;;;3.97;3.03;;;7.10;99.90;;;;;;4969338;28;20703;-69
2023/03/08 10:47:23;;;;;;;3.80;3.20;;;7.30;99.90;;;;;;4969797;28;20295;-69
2023/03/08 10:50:05;;;;;;;4.85;2.97;;;7.60;99.90;;;;;;4961203;28;20204;-69
2023/03/08 10:52:32;;;;;;;4.43;3.20;;;8.00;99.90;;;;;;4952147;28;20259;-69
2023/03/08 10:55:05;;;;;;;3.80;2.92;;;8.20;99.90;;;;;;4967613;28;20204;-68
2023/03/08 10:57:33;;;;;;;3.03;2.63;;;8.30;99.90;;;;;;4951289;28;20228;-71
2023/03/08 11:00:12;;;;;;;2.38;2.17;;;8.40;99.90;;;;;;4959202;28;20205;-71
2023/03/08 11:02:39;;;;;;;2.60;2.05;;;8.40;99.90;;;;;;4961176;28;20234;-72
2023/03/08 11:05:21;;;;;;;2.50;1.95;;;8.30;99.90;;;;;;4963397;28;20368;-71
2023/03/08 11:07:52;;;;;;;2.92;1.88;;;8.30;99.90;;;;;;4963861;28;20701;-68
2023/03/08 11:10:22;;;;;;;4.20;2.50;;;8.30;99.90;;;;;;4959879;28;20204;-69
2023/03/08 11:12:50;;;;;;;2.35;1.60;;;8.30;99.90;;;;;;4965169;28;20474;-69
2023/03/08 11:15:19;;;;;;;1.73;1.45;;;8.40;99.90;;;;;;4951033;28;20945;-69
2023/03/08 11:17:55;;;;;;;1.58;1.42;;;8.50;99.90;;;;;;4960184;28;20212;-69
2023/03/08 11:20:27;;;;;;;1.85;1.23;;;8.60;99.90;;;;;;4970389;28;20192;-69
2023/03/08 11:23:06;;;;;;;1.10;1.00;;;8.70;99.90;;;;;;4970196;28;20228;-70
2023/03/08 11:25:44;;;;;;;1.75;1.45;;;8.80;99.90;;;;;;4972422;28;20575;-69
2023/03/08 11:28:27;;;;;;;1.63;1.20;;;8.90;99.90;;;;;;4973462;28;20282;-69
2023/03/08 11:31:04;;;;;;;1.75;1.58;;;8.90;99.90;;;;;;4974630;28;20203;-68
2023/03/08 11:33:44;;;;;;;2.00;1.15;;;9.00;99.90;;;;;;4954493;28;20604;-69
2023/03/08 11:36:17;;;;;;;1.30;1.20;;;9.00;99.90;;;;;;4966362;28;20859;-68
2023/03/08 11:38:54;;;;;;;1.20;1.00;;;9.20;99.90;;;;;;4974192;28;20221;-70
2023/03/08 11:41:28;;;;;;;1.60;1.10;;;9.20;99.90;;;;;;4973149;28;20208;-70
2023/03/08 11:44:17;;;;;;;1.25;0.93;;;9.30;99.90;;;;;;4971625;28;20231;-70
2023/03/08 11:46:54;;;;;;;1.20;1.00;;;9.40;99.90;;;;;;4954859;28;20204;-70
2023/03/08 11:49:43;;;;;;;1.08;0.80;;;9.50;99.90;;;;;;4954534;28;20207;-70
2023/03/08 11:52:22;;;;;;;1.70;1.05;;;9.70;99.90;;;;;;4953705;28;20200;-69
2023/03/08 11:55:01;;;;;;;4.60;0.95;;;9.80;99.90;;;;;;4953621;28;20283;-70
2023/03/08 11:57:35;;;;;;;1.10;1.00;;;9.80;99.90;;;;;;4968255;28;20261;-70
2023/03/08 12:00:11;;;;;;;1.40;1.10;;;9.80;99.90;;;;;;4973594;28;20227;-71
2023/03/08 12:02:42;;;;;;;1.10;1.00;;;9.80;99.90;;;;;;4972979;28;20714;-68
2023/03/08 12:05:14;;;;;;;1.00;0.90;;;9.90;99.90;;;;;;4972711;28;20199;-70
2023/03/08 12:07:46;;;;;;;1.48;1.02;;;9.90;99.90;;;;;;4957646;28;20219;-70
2023/03/08 12:10:21;;;;;;;2.78;1.20;;;9.90;99.90;;;;;;4960880;28;20200;-70
2023/03/08 12:12:53;;;;;;;1.60;1.20;;;9.90;99.90;;;;;;4953075;29;20224;-70
2023/03/08 12:15:27;;;;;;;1.30;0.98;;;10.00;99.90;;;;;;4953449;29;20623;-70
2023/03/08 12:18:01;;;;;;;1.50;0.82;;;10.00;99.90;;;;;;4953399;29;20209;-70
2023/03/08 12:20:33;;;;;;;1.00;0.90;;;10.10;99.90;;;;;;4953550;29;20743;-71
2023/03/08 12:23:10;;;;;;;1.92;1.20;;;10.10;99.90;;;;;;4953466;29;20315;-70
2023/03/08 12:25:40;;;;;;;1.00;0.80;;;10.20;99.90;;;;;;4953300;29;20211;-70
2023/03/08 12:28:19;;;;;;;1.00;0.90;;;10.20;99.90;;;;;;4954321;28;20279;-70
2023/03/08 12:31:01;;;;;;;1.85;1.20;;;10.20;99.90;;;;;;4953763;28;20206;-69
2023/03/08 12:33:31;;;;;;;1.10;1.00;;;10.30;99.90;;;;;;4963384;28;20247;-70
2023/03/08 12:36:00;;;;;;;1.00;0.90;;;10.30;99.90;;;;;;4962931;28;20211;-70
2023/03/08 12:38:35;;;;;;;1.83;0.90;;;10.30;99.90;;;;;;4972632;28;20703;-69
2023/03/08 12:41:02;;;;;;;1.35;0.90;;;10.40;99.90;;;;;;4972527;28;20210;-70
2023/03/08 12:43:32;;;;;;;2.20;1.70;;;10.40;99.90;;;;;;4972098;28;20219;-69
2023/03/08 12:46:06;;;;;;;1.38;1.00;;;10.50;99.90;;;;;;4972612;28;20204;-70
2023/03/08 12:48:36;;;;;;;1.00;0.80;;;10.60;99.90;;;;;;4972679;28;20586;-69
2023/03/08 12:51:08;;;;;;;1.10;0.93;;;10.70;99.90;;;;;;4972533;28;20839;-69
2023/03/08 12:53:41;;;;;;;1.52;1.00;;;10.70;99.90;;;;;;4971989;28;20235;-70
2023/03/08 12:56:24;;;;;;;1.52;0.90;;;10.70;99.90;;;;;;4953152;28;20204;-69
2023/03/08 12:58:53;;;;;;;1.10;0.90;;;10.70;99.90;;;;;;4953302;28;20823;-70
2023/03/08 13:01:28;;;;;;;1.00;0.90;;;10.70;99.90;;;;;;4955210;28;20220;-69
2023/03/08 13:03:55;;;;;;;1.13;1.02;;;10.60;99.90;;;;;;4970305;28;20219;-69
2023/03/08 13:06:48;;;;;;;2.00;1.10;;;10.70;99.90;;;;;;4971950;28;20204;-70